sensor_id;sensor_type;location;lat;lon;timestamp;P1;durP1;ratioP1;P2;durP2;ratioP2
44764;SDS011;30484;52.382;5.260;2023-05-07T00:00:25;55.20;;;36.42;;
44764;SDS011;30484;52.382;5.260;2023-05-07T00:02:58;51.08;;;33.30;;
44764;SDS011;30484;52.382;5.260;2023-05-07T00:05:28;46.70;;;31.63;;
44764;SDS011;30484;52.382;5.260;2023-05-07T00:07:57;40.33;;;28.85;;
44764;SDS011;30484;52.382;5.260;2023-05-07T00:10:28;44.00;;;28.75;;
44764;SDS011;30484;52.382;5.260;2023-05-07T00:12:59;41.90;;;28.17;;
44764;SDS011;30484;52.382;5.260;2023-05-07T00:15:30;42.45;;;28.63;;
44764;SDS011;30484;52.382;5.260;2023-05-07T00:17:59;39.00;;;26.55;;
44764;SDS011;30484;52.382;5.260;2023-05-07T00:20:29;39.65;;;25.75;;
44764;SDS011;30484;52.382;5.260;2023-05-07T00:23:01;38.58;;;25.13;;
44764;SDS011;30484;52.382;5.260;2023-05-07T00:25:31;32.17;;;23.60;;
44764;SDS011;30484;52.382;5.260;2023-05-07T00:28:01;31.50;;;22.75;;
44764;SDS011;30484;52.382;5.260;2023-05-07T00:30:31;33.33;;;22.00;;
44764;SDS011;30484;52.382;5.260;2023-05-07T00:33:00;37.53;;;23.92;;
44764;SDS011;30484;52.382;5.260;2023-05-07T00:35:29;31.20;;;21.98;;
44764;SDS011;30484;52.382;5.260;2023-05-07T00:37:58;29.23;;;21.35;;
44764;SDS011;30484;52.382;5.260;2023-05-07T00:40:27;32.47;;;23.02;;
44764;SDS011;30484;52.382;5.260;2023-05-07T00:42:57;33.13;;;22.02;;
44764;SDS011;30484;52.382;5.260;2023-05-07T00:45:29;37.63;;;24.40;;
44764;SDS011;30484;52.382;5.260;2023-05-07T00:47:59;35.15;;;23.13;;
44764;SDS011;30484;52.382;5.260;2023-05-07T00:50:30;39.42;;;24.27;;
44764;SDS011;30484;52.382;5.260;2023-05-07T00:53:00;30.67;;;23.70;;
44764;SDS011;30484;52.382;5.260;2023-05-07T00:55:31;35.03;;;24.08;;
44764;SDS011;30484;52.382;5.260;2023-05-07T00:58:03;29.30;;;23.20;;
44764;SDS011;30484;52.382;5.260;2023-05-07T01:00:36;32.00;;;22.70;;
44764;SDS011;30484;52.382;5.260;2023-05-07T01:03:06;37.03;;;24.00;;
44764;SDS011;30484;52.382;5.260;2023-05-07T01:05:35;31.90;;;23.95;;
44764;SDS011;30484;52.382;5.260;2023-05-07T01:08:07;34.60;;;24.63;;
44764;SDS011;30484;52.382;5.260;2023-05-07T01:10:43;31.67;;;23.60;;
44764;SDS011;30484;52.382;5.260;2023-05-07T01:13:14;39.60;;;26.05;;
44764;SDS011;30484;52.382;5.260;2023-05-07T01:15:44;32.53;;;25.30;;
44764;SDS011;30484;52.382;5.260;2023-05-07T01:18:14;35.53;;;26.08;;
44764;SDS011;30484;52.382;5.260;2023-05-07T01:20:43;33.20;;;25.45;;
44764;SDS011;30484;52.382;5.260;2023-05-07T01:23:15;32.47;;;24.58;;
44764;SDS011;30484;52.382;5.260;2023-05-07T01:25:51;32.40;;;24.35;;
44764;SDS011;30484;52.382;5.260;2023-05-07T01:28:21;33.63;;;23.17;;
44764;SDS011;30484;52.382;5.260;2023-05-07T01:30:52;29.95;;;22.77;;
44764;SDS011;30484;52.382;5.260;2023-05-07T01:33:29;32.30;;;22.58;;
44764;SDS011;30484;52.382;5.260;2023-05-07T01:36:04;33.22;;;23.52;;
44764;SDS011;30484;52.382;5.260;2023-05-07T01:38:38;29.45;;;22.00;;
44764;SDS011;30484;52.382;5.260;2023-05-07T01:41:08;29.40;;;21.60;;
44764;SDS011;30484;52.382;5.260;2023-05-07T01:43:37;29.50;;;20.95;;
44764;SDS011;30484;52.382;5.260;2023-05-07T01:46:07;29.33;;;21.23;;
44764;SDS011;30484;52.382;5.260;2023-05-07T01:48:38;28.67;;;21.05;;
44764;SDS011;30484;52.382;5.260;2023-05-07T01:51:13;28.98;;;20.85;;
44764;SDS011;30484;52.382;5.260;2023-05-07T01:53:46;28.80;;;21.00;;
44764;SDS011;30484;52.382;5.260;2023-05-07T01:56:17;30.67;;;20.05;;
44764;SDS011;30484;52.382;5.260;2023-05-07T01:58:47;29.58;;;20.85;;
44764;SDS011;30484;52.382;5.260;2023-05-07T02:01:18;22.45;;;17.92;;
44764;SDS011;30484;52.382;5.260;2023-05-07T02:03:52;22.77;;;18.08;;
44764;SDS011;30484;52.382;5.260;2023-05-07T02:06:22;25.35;;;18.73;;
44764;SDS011;30484;52.382;5.260;2023-05-07T02:08:56;24.60;;;18.00;;
44764;SDS011;30484;52.382;5.260;2023-05-07T02:11:25;22.30;;;17.42;;
44764;SDS011;30484;52.382;5.260;2023-05-07T02:13:55;26.20;;;17.52;;
44764;SDS011;30484;52.382;5.260;2023-05-07T02:16:25;26.50;;;17.77;;
44764;SDS011;30484;52.382;5.260;2023-05-07T02:18:57;26.33;;;17.15;;
44764;SDS011;30484;52.382;5.260;2023-05-07T02:21:28;22.27;;;17.15;;
44764;SDS011;30484;52.382;5.260;2023-05-07T02:24:00;23.70;;;16.40;;
44764;SDS011;30484;52.382;5.260;2023-05-07T02:26:30;22.90;;;16.08;;
44764;SDS011;30484;52.382;5.260;2023-05-07T02:29:00;26.50;;;16.77;;
44764;SDS011;30484;52.382;5.260;2023-05-07T02:31:30;23.25;;;15.60;;
44764;SDS011;30484;52.382;5.260;2023-05-07T02:34:00;25.50;;;16.05;;
44764;SDS011;30484;52.382;5.260;2023-05-07T02:36:32;23.63;;;16.55;;
44764;SDS011;30484;52.382;5.260;2023-05-07T02:39:16;23.25;;;16.80;;
44764;SDS011;30484;52.382;5.260;2023-05-07T02:41:48;22.60;;;16.13;;
44764;SDS011;30484;52.382;5.260;2023-05-07T02:44:19;19.88;;;15.70;;
44764;SDS011;30484;52.382;5.260;2023-05-07T02:46:51;22.25;;;16.80;;
44764;SDS011;30484;52.382;5.260;2023-05-07T02:49:23;23.90;;;16.85;;
44764;SDS011;30484;52.382;5.260;2023-05-07T02:51:54;22.70;;;17.13;;
44764;SDS011;30484;52.382;5.260;2023-05-07T02:54:24;20.40;;;16.50;;
44764;SDS011;30484;52.382;5.260;2023-05-07T02:56:53;24.88;;;17.00;;
44764;SDS011;30484;52.382;5.260;2023-05-07T02:59:23;24.27;;;16.92;;
44764;SDS011;30484;52.382;5.260;2023-05-07T03:01:54;23.77;;;16.83;;
44764;SDS011;30484;52.382;5.260;2023-05-07T03:04:23;19.52;;;15.88;;
44764;SDS011;30484;52.382;5.260;2023-05-07T03:06:54;21.98;;;16.80;;
44764;SDS011;30484;52.382;5.260;2023-05-07T03:09:24;21.25;;;15.70;;
44764;SDS011;30484;52.382;5.260;2023-05-07T03:11:53;26.25;;;16.33;;
44764;SDS011;30484;52.382;5.260;2023-05-07T03:14:23;24.02;;;15.93;;
44764;SDS011;30484;52.382;5.260;2023-05-07T03:16:52;18.23;;;14.85;;
44764;SDS011;30484;52.382;5.260;2023-05-07T03:19:23;23.20;;;16.63;;
44764;SDS011;30484;52.382;5.260;2023-05-07T03:21:53;21.80;;;16.45;;
44764;SDS011;30484;52.382;5.260;2023-05-07T03:24:26;20.50;;;15.43;;
44764;SDS011;30484;52.382;5.260;2023-05-07T03:26:56;23.50;;;17.77;;
44764;SDS011;30484;52.382;5.260;2023-05-07T03:29:28;20.42;;;15.50;;
44764;SDS011;30484;52.382;5.260;2023-05-07T03:31:58;21.30;;;15.63;;
44764;SDS011;30484;52.382;5.260;2023-05-07T03:34:29;20.42;;;15.18;;
44764;SDS011;30484;52.382;5.260;2023-05-07T03:36:59;21.55;;;15.38;;
44764;SDS011;30484;52.382;5.260;2023-05-07T03:39:29;25.35;;;17.15;;
44764;SDS011;30484;52.382;5.260;2023-05-07T03:42:03;22.38;;;16.92;;
44764;SDS011;30484;52.382;5.260;2023-05-07T03:44:32;20.10;;;15.80;;
44764;SDS011;30484;52.382;5.260;2023-05-07T03:47:04;24.70;;;16.67;;
44764;SDS011;30484;52.382;5.260;2023-05-07T03:49:33;23.45;;;17.77;;
44764;SDS011;30484;52.382;5.260;2023-05-07T03:52:07;25.00;;;17.65;;
44764;SDS011;30484;52.382;5.260;2023-05-07T03:54:46;23.75;;;16.60;;
44764;SDS011;30484;52.382;5.260;2023-05-07T03:57:17;21.08;;;15.68;;
44764;SDS011;30484;52.382;5.260;2023-05-07T03:59:48;23.73;;;16.33;;
44764;SDS011;30484;52.382;5.260;2023-05-07T04:02:18;23.42;;;17.85;;
44764;SDS011;30484;52.382;5.260;2023-05-07T04:04:56;23.83;;;17.27;;
44764;SDS011;30484;52.382;5.260;2023-05-07T04:07:26;24.63;;;18.35;;
44764;SDS011;30484;52.382;5.260;2023-05-07T04:09:56;30.80;;;18.13;;
44764;SDS011;30484;52.382;5.260;2023-05-07T04:12:25;24.08;;;18.15;;
44764;SDS011;30484;52.382;5.260;2023-05-07T04:14:56;26.92;;;18.90;;
44764;SDS011;30484;52.382;5.260;2023-05-07T04:17:27;28.42;;;19.65;;
44764;SDS011;30484;52.382;5.260;2023-05-07T04:20:01;30.02;;;21.38;;
44764;SDS011;30484;52.382;5.260;2023-05-07T04:22:33;30.88;;;21.45;;
44764;SDS011;30484;52.382;5.260;2023-05-07T04:25:07;31.13;;;21.92;;
44764;SDS011;30484;52.382;5.260;2023-05-07T04:27:39;30.80;;;22.15;;
44764;SDS011;30484;52.382;5.260;2023-05-07T04:30:12;35.08;;;22.65;;
44764;SDS011;30484;52.382;5.260;2023-05-07T04:32:45;32.45;;;22.65;;
44764;SDS011;30484;52.382;5.260;2023-05-07T04:35:18;35.78;;;22.85;;
44764;SDS011;30484;52.382;5.260;2023-05-07T04:37:51;35.58;;;23.58;;
44764;SDS011;30484;52.382;5.260;2023-05-07T04:40:25;36.90;;;23.58;;
44764;SDS011;30484;52.382;5.260;2023-05-07T04:43:00;32.88;;;23.33;;
44764;SDS011;30484;52.382;5.260;2023-05-07T04:45:30;32.53;;;21.88;;
44764;SDS011;30484;52.382;5.260;2023-05-07T04:48:03;33.55;;;21.33;;
44764;SDS011;30484;52.382;5.260;2023-05-07T04:50:34;28.20;;;21.02;;
44764;SDS011;30484;52.382;5.260;2023-05-07T04:53:04;30.05;;;21.30;;
44764;SDS011;30484;52.382;5.260;2023-05-07T04:55:34;29.17;;;21.98;;
44764;SDS011;30484;52.382;5.260;2023-05-07T04:58:08;30.27;;;21.45;;
44764;SDS011;30484;52.382;5.260;2023-05-07T05:00:39;29.05;;;21.38;;
44764;SDS011;30484;52.382;5.260;2023-05-07T05:03:10;30.15;;;22.30;;
44764;SDS011;30484;52.382;5.260;2023-05-07T05:05:40;31.50;;;21.60;;
44764;SDS011;30484;52.382;5.260;2023-05-07T05:08:17;31.95;;;22.73;;
44764;SDS011;30484;52.382;5.260;2023-05-07T05:10:48;29.25;;;21.13;;
44764;SDS011;30484;52.382;5.260;2023-05-07T05:13:20;34.40;;;21.83;;
44764;SDS011;30484;52.382;5.260;2023-05-07T05:15:54;32.00;;;21.20;;
44764;SDS011;30484;52.382;5.260;2023-05-07T05:18:29;30.30;;;20.65;;
44764;SDS011;30484;52.382;5.260;2023-05-07T05:21:01;29.38;;;22.40;;
44764;SDS011;30484;52.382;5.260;2023-05-07T05:23:33;31.90;;;22.10;;
44764;SDS011;30484;52.382;5.260;2023-05-07T05:26:08;34.60;;;22.60;;
44764;SDS011;30484;52.382;5.260;2023-05-07T05:28:45;35.00;;;24.05;;
44764;SDS011;30484;52.382;5.260;2023-05-07T05:31:16;31.08;;;23.05;;
44764;SDS011;30484;52.382;5.260;2023-05-07T05:33:52;32.20;;;26.25;;
44764;SDS011;30484;52.382;5.260;2023-05-07T05:36:21;34.30;;;24.85;;
44764;SDS011;30484;52.382;5.260;2023-05-07T05:39:08;36.67;;;27.20;;
44764;SDS011;30484;52.382;5.260;2023-05-07T05:41:51;36.45;;;28.20;;
44764;SDS011;30484;52.382;5.260;2023-05-07T05:44:19;41.13;;;29.73;;
44764;SDS011;30484;52.382;5.260;2023-05-07T05:46:50;41.05;;;30.40;;
44764;SDS011;30484;52.382;5.260;2023-05-07T05:49:24;34.97;;;28.48;;
44764;SDS011;30484;52.382;5.260;2023-05-07T05:52:02;35.28;;;30.27;;
44764;SDS011;30484;52.382;5.260;2023-05-07T05:54:41;37.50;;;28.83;;
44764;SDS011;30484;52.382;5.260;2023-05-07T05:57:19;40.20;;;30.40;;
44764;SDS011;30484;52.382;5.260;2023-05-07T05:59:54;37.10;;;30.02;;
44764;SDS011;30484;52.382;5.260;2023-05-07T06:02:28;38.03;;;28.92;;
44764;SDS011;30484;52.382;5.260;2023-05-07T06:04:58;33.08;;;27.02;;
44764;SDS011;30484;52.382;5.260;2023-05-07T06:07:37;34.90;;;26.25;;
44764;SDS011;30484;52.382;5.260;2023-05-07T06:10:07;33.83;;;26.73;;
44764;SDS011;30484;52.382;5.260;2023-05-07T06:12:41;30.80;;;26.80;;
44764;SDS011;30484;52.382;5.260;2023-05-07T06:15:12;33.15;;;26.10;;
44764;SDS011;30484;52.382;5.260;2023-05-07T06:17:44;32.53;;;26.13;;
44764;SDS011;30484;52.382;5.260;2023-05-07T06:20:25;34.67;;;26.00;;
44764;SDS011;30484;52.382;5.260;2023-05-07T06:22:57;33.63;;;26.13;;
44764;SDS011;30484;52.382;5.260;2023-05-07T06:25:29;31.52;;;25.88;;
44764;SDS011;30484;52.382;5.260;2023-05-07T06:28:03;33.70;;;24.80;;
44764;SDS011;30484;52.382;5.260;2023-05-07T06:30:40;31.15;;;24.13;;
44764;SDS011;30484;52.382;5.260;2023-05-07T06:33:11;29.90;;;25.20;;
44764;SDS011;30484;52.382;5.260;2023-05-07T06:35:44;31.88;;;24.50;;
44764;SDS011;30484;52.382;5.260;2023-05-07T06:38:13;28.30;;;24.55;;
44764;SDS011;30484;52.382;5.260;2023-05-07T06:40:45;29.98;;;24.40;;
44764;SDS011;30484;52.382;5.260;2023-05-07T06:43:19;29.02;;;24.33;;
44764;SDS011;30484;52.382;5.260;2023-05-07T06:45:48;30.60;;;25.52;;
44764;SDS011;30484;52.382;5.260;2023-05-07T06:48:23;31.30;;;25.37;;
44764;SDS011;30484;52.382;5.260;2023-05-07T06:50:53;32.97;;;26.50;;
44764;SDS011;30484;52.382;5.260;2023-05-07T06:53:25;32.70;;;26.38;;
44764;SDS011;30484;52.382;5.260;2023-05-07T06:55:55;34.85;;;26.73;;
44764;SDS011;30484;52.382;5.260;2023-05-07T06:58:28;36.45;;;26.08;;
44764;SDS011;30484;52.382;5.260;2023-05-07T07:01:01;33.23;;;26.90;;
44764;SDS011;30484;52.382;5.260;2023-05-07T07:03:31;35.75;;;27.40;;
44764;SDS011;30484;52.382;5.260;2023-05-07T07:06:01;36.28;;;28.00;;
44764;SDS011;30484;52.382;5.260;2023-05-07T07:08:31;30.05;;;26.15;;
44764;SDS011;30484;52.382;5.260;2023-05-07T07:11:07;32.13;;;25.85;;
44764;SDS011;30484;52.382;5.260;2023-05-07T07:13:43;29.67;;;25.33;;
44764;SDS011;30484;52.382;5.260;2023-05-07T07:16:12;31.25;;;24.90;;
44764;SDS011;30484;52.382;5.260;2023-05-07T07:21:19;31.50;;;23.63;;
44764;SDS011;30484;52.382;5.260;2023-05-07T07:23:51;26.35;;;21.65;;
44764;SDS011;30484;52.382;5.260;2023-05-07T07:26:22;27.58;;;20.98;;
44764;SDS011;30484;52.382;5.260;2023-05-07T07:28:54;25.70;;;21.50;;
44764;SDS011;30484;52.382;5.260;2023-05-07T07:31:25;25.90;;;21.20;;
44764;SDS011;30484;52.382;5.260;2023-05-07T07:33:58;27.95;;;20.45;;
44764;SDS011;30484;52.382;5.260;2023-05-07T07:36:29;26.08;;;20.10;;
44764;SDS011;30484;52.382;5.260;2023-05-07T07:39:10;23.67;;;21.17;;
44764;SDS011;30484;52.382;5.260;2023-05-07T07:41:44;25.60;;;20.27;;
44764;SDS011;30484;52.382;5.260;2023-05-07T07:44:21;23.15;;;19.95;;
44764;SDS011;30484;52.382;5.260;2023-05-07T07:46:51;26.48;;;20.00;;
44764;SDS011;30484;52.382;5.260;2023-05-07T07:49:22;26.27;;;18.65;;
44764;SDS011;30484;52.382;5.260;2023-05-07T07:51:52;23.13;;;20.00;;
44764;SDS011;30484;52.382;5.260;2023-05-07T07:54:26;26.50;;;19.50;;
44764;SDS011;30484;52.382;5.260;2023-05-07T07:56:59;22.95;;;18.27;;
44764;SDS011;30484;52.382;5.260;2023-05-07T07:59:29;20.85;;;18.13;;
44764;SDS011;30484;52.382;5.260;2023-05-07T08:02:00;21.85;;;18.33;;
44764;SDS011;30484;52.382;5.260;2023-05-07T08:04:30;22.65;;;17.88;;
44764;SDS011;30484;52.382;5.260;2023-05-07T08:07:02;24.88;;;19.05;;
44764;SDS011;30484;52.382;5.260;2023-05-07T08:09:32;23.17;;;18.23;;
44764;SDS011;30484;52.382;5.260;2023-05-07T08:12:09;23.83;;;17.02;;
44764;SDS011;30484;52.382;5.260;2023-05-07T08:14:42;20.95;;;17.55;;
44764;SDS011;30484;52.382;5.260;2023-05-07T08:17:14;19.73;;;17.55;;
44764;SDS011;30484;52.382;5.260;2023-05-07T08:19:44;25.88;;;18.38;;
44764;SDS011;30484;52.382;5.260;2023-05-07T08:22:19;21.65;;;17.48;;
44764;SDS011;30484;52.382;5.260;2023-05-07T08:24:52;20.02;;;16.45;;
44764;SDS011;30484;52.382;5.260;2023-05-07T08:27:23;19.67;;;15.88;;
44764;SDS011;30484;52.382;5.260;2023-05-07T08:29:55;22.63;;;16.33;;
44764;SDS011;30484;52.382;5.260;2023-05-07T08:32:29;18.63;;;15.38;;
44764;SDS011;30484;52.382;5.260;2023-05-07T08:37:36;18.48;;;16.00;;
44764;SDS011;30484;52.382;5.260;2023-05-07T08:40:06;17.25;;;15.45;;
44764;SDS011;30484;52.382;5.260;2023-05-07T08:42:40;24.77;;;15.85;;
44764;SDS011;30484;52.382;5.260;2023-05-07T08:45:16;20.80;;;16.15;;
44764;SDS011;30484;52.382;5.260;2023-05-07T08:47:50;21.33;;;16.52;;
44764;SDS011;30484;52.382;5.260;2023-05-07T08:50:39;20.23;;;16.05;;
44764;SDS011;30484;52.382;5.260;2023-05-07T08:53:09;22.00;;;16.80;;
44764;SDS011;30484;52.382;5.260;2023-05-07T08:55:41;21.98;;;17.35;;
44764;SDS011;30484;52.382;5.260;2023-05-07T08:58:11;21.25;;;16.25;;
44764;SDS011;30484;52.382;5.260;2023-05-07T09:00:45;29.33;;;19.38;;
44764;SDS011;30484;52.382;5.260;2023-05-07T09:03:20;23.27;;;17.48;;
44764;SDS011;30484;52.382;5.260;2023-05-07T09:05:50;19.95;;;15.02;;
44764;SDS011;30484;52.382;5.260;2023-05-07T09:08:23;20.02;;;15.55;;
44764;SDS011;30484;52.382;5.260;2023-05-07T09:10:56;21.02;;;15.77;;
44764;SDS011;30484;52.382;5.260;2023-05-07T09:13:27;17.55;;;15.07;;
44764;SDS011;30484;52.382;5.260;2023-05-07T09:15:58;18.88;;;15.15;;
44764;SDS011;30484;52.382;5.260;2023-05-07T09:18:41;17.92;;;15.35;;
44764;SDS011;30484;52.382;5.260;2023-05-07T09:21:10;21.70;;;16.42;;
44764;SDS011;30484;52.382;5.260;2023-05-07T09:23:42;18.70;;;15.43;;
44764;SDS011;30484;52.382;5.260;2023-05-07T09:26:14;20.20;;;15.68;;
44764;SDS011;30484;52.382;5.260;2023-05-07T09:28:45;20.73;;;15.93;;
44764;SDS011;30484;52.382;5.260;2023-05-07T09:31:16;18.20;;;14.88;;
44764;SDS011;30484;52.382;5.260;2023-05-07T09:33:48;19.35;;;15.63;;
44764;SDS011;30484;52.382;5.260;2023-05-07T09:36:17;20.25;;;15.35;;
44764;SDS011;30484;52.382;5.260;2023-05-07T09:38:47;17.70;;;14.57;;
44764;SDS011;30484;52.382;5.260;2023-05-07T09:41:18;19.05;;;14.20;;
44764;SDS011;30484;52.382;5.260;2023-05-07T09:43:53;17.77;;;13.35;;
44764;SDS011;30484;52.382;5.260;2023-05-07T09:46:25;16.92;;;13.55;;
44764;SDS011;30484;52.382;5.260;2023-05-07T09:49:00;21.02;;;14.48;;
44764;SDS011;30484;52.382;5.260;2023-05-07T09:51:38;17.27;;;13.85;;
44764;SDS011;30484;52.382;5.260;2023-05-07T09:54:13;17.77;;;12.40;;
44764;SDS011;30484;52.382;5.260;2023-05-07T09:56:42;14.85;;;11.95;;
44764;SDS011;30484;52.382;5.260;2023-05-07T09:59:14;17.15;;;12.50;;
44764;SDS011;30484;52.382;5.260;2023-05-07T10:01:51;16.92;;;12.10;;
44764;SDS011;30484;52.382;5.260;2023-05-07T10:04:28;15.27;;;12.18;;
44764;SDS011;30484;52.382;5.260;2023-05-07T10:07:00;15.20;;;12.18;;
44764;SDS011;30484;52.382;5.260;2023-05-07T10:09:32;16.15;;;11.70;;
44764;SDS011;30484;52.382;5.260;2023-05-07T10:12:05;16.75;;;12.57;;
44764;SDS011;30484;52.382;5.260;2023-05-07T10:14:35;20.30;;;13.00;;
44764;SDS011;30484;52.382;5.260;2023-05-07T10:17:08;15.35;;;11.63;;
44764;SDS011;30484;52.382;5.260;2023-05-07T10:19:39;14.63;;;11.05;;
44764;SDS011;30484;52.382;5.260;2023-05-07T10:22:11;11.05;;;8.88;;
44764;SDS011;30484;52.382;5.260;2023-05-07T10:24:43;15.15;;;9.70;;
44764;SDS011;30484;52.382;5.260;2023-05-07T10:27:17;14.15;;;10.43;;
44764;SDS011;30484;52.382;5.260;2023-05-07T10:29:49;11.65;;;8.40;;
44764;SDS011;30484;52.382;5.260;2023-05-07T10:32:33;13.65;;;9.27;;
44764;SDS011;30484;52.382;5.260;2023-05-07T10:35:14;10.98;;;8.90;;
44764;SDS011;30484;52.382;5.260;2023-05-07T10:37:49;11.43;;;8.77;;
44764;SDS011;30484;52.382;5.260;2023-05-07T10:40:20;15.15;;;9.63;;
44764;SDS011;30484;52.382;5.260;2023-05-07T10:42:55;13.23;;;9.20;;
44764;SDS011;30484;52.382;5.260;2023-05-07T10:45:27;13.15;;;8.38;;
44764;SDS011;30484;52.382;5.260;2023-05-07T10:53:54;7.95;;;5.18;;
44764;SDS011;30484;52.382;5.260;2023-05-07T10:56:46;8.65;;;6.40;;
44764;SDS011;30484;52.382;5.260;2023-05-07T10:59:38;8.60;;;6.20;;
44764;SDS011;30484;52.382;5.260;2023-05-07T11:02:12;8.85;;;5.38;;
44764;SDS011;30484;52.382;5.260;2023-05-07T11:04:43;7.85;;;6.38;;
44764;SDS011;30484;52.382;5.260;2023-05-07T11:07:26;12.38;;;5.68;;
44764;SDS011;30484;52.382;5.260;2023-05-07T11:09:58;12.38;;;5.97;;
44764;SDS011;30484;52.382;5.260;2023-05-07T11:12:47;9.50;;;5.90;;
44764;SDS011;30484;52.382;5.260;2023-05-07T11:15:37;7.40;;;5.38;;
44764;SDS011;30484;52.382;5.260;2023-05-07T11:18:10;12.27;;;6.70;;
44764;SDS011;30484;52.382;5.260;2023-05-07T11:20:48;11.38;;;7.03;;
44764;SDS011;30484;52.382;5.260;2023-05-07T11:26:29;8.65;;;5.10;;
44764;SDS011;30484;52.382;5.260;2023-05-07T11:28:59;6.97;;;4.53;;
44764;SDS011;30484;52.382;5.260;2023-05-07T11:31:28;8.43;;;4.90;;
44764;SDS011;30484;52.382;5.260;2023-05-07T11:33:59;7.07;;;4.28;;
44764;SDS011;30484;52.382;5.260;2023-05-07T11:36:41;6.68;;;4.85;;
44764;SDS011;30484;52.382;5.260;2023-05-07T11:39:24;9.25;;;4.63;;
44764;SDS011;30484;52.382;5.260;2023-05-07T11:41:55;9.48;;;5.40;;
44764;SDS011;30484;52.382;5.260;2023-05-07T11:44:24;8.20;;;5.65;;
44764;SDS011;30484;52.382;5.260;2023-05-07T11:47:09;10.20;;;5.07;;
44764;SDS011;30484;52.382;5.260;2023-05-07T11:49:41;7.53;;;4.70;;
44764;SDS011;30484;52.382;5.260;2023-05-07T11:52:12;10.32;;;5.38;;
44764;SDS011;30484;52.382;5.260;2023-05-07T11:54:48;8.32;;;4.88;;
44764;SDS011;30484;52.382;5.260;2023-05-07T11:57:17;7.88;;;4.57;;
44764;SDS011;30484;52.382;5.260;2023-05-07T11:59:49;11.65;;;5.60;;
44764;SDS011;30484;52.382;5.260;2023-05-07T12:02:24;11.77;;;6.55;;
44764;SDS011;30484;52.382;5.260;2023-05-07T12:04:56;9.95;;;5.13;;
44764;SDS011;30484;52.382;5.260;2023-05-07T12:07:32;10.40;;;4.53;;
44764;SDS011;30484;52.382;5.260;2023-05-07T12:10:04;6.18;;;3.97;;
44764;SDS011;30484;52.382;5.260;2023-05-07T12:12:38;12.95;;;5.18;;
44764;SDS011;30484;52.382;5.260;2023-05-07T12:15:09;9.40;;;3.65;;
44764;SDS011;30484;52.382;5.260;2023-05-07T12:17:40;7.68;;;4.53;;
44764;SDS011;30484;52.382;5.260;2023-05-07T12:20:12;10.57;;;5.32;;
44764;SDS011;30484;52.382;5.260;2023-05-07T12:22:56;7.93;;;4.65;;
44764;SDS011;30484;52.382;5.260;2023-05-07T12:25:26;8.57;;;4.30;;
44764;SDS011;30484;52.382;5.260;2023-05-07T12:28:00;8.25;;;4.85;;
44764;SDS011;30484;52.382;5.260;2023-05-07T12:30:36;10.48;;;5.20;;
44764;SDS011;30484;52.382;5.260;2023-05-07T12:33:06;7.03;;;4.32;;
44764;SDS011;30484;52.382;5.260;2023-05-07T12:35:36;9.02;;;5.60;;
44764;SDS011;30484;52.382;5.260;2023-05-07T12:38:09;9.77;;;4.53;;
44764;SDS011;30484;52.382;5.260;2023-05-07T12:40:45;9.32;;;6.10;;
44764;SDS011;30484;52.382;5.260;2023-05-07T12:43:18;11.32;;;6.32;;
44764;SDS011;30484;52.382;5.260;2023-05-07T12:45:47;11.60;;;6.80;;
44764;SDS011;30484;52.382;5.260;2023-05-07T12:48:23;11.05;;;7.40;;
44764;SDS011;30484;52.382;5.260;2023-05-07T12:50:56;10.48;;;7.10;;
44764;SDS011;30484;52.382;5.260;2023-05-07T12:53:30;10.77;;;7.35;;
44764;SDS011;30484;52.382;5.260;2023-05-07T12:55:59;10.77;;;6.70;;
44764;SDS011;30484;52.382;5.260;2023-05-07T12:58:34;11.15;;;7.22;;
44764;SDS011;30484;52.382;5.260;2023-05-07T13:01:07;10.25;;;7.72;;
44764;SDS011;30484;52.382;5.260;2023-05-07T13:06:17;13.05;;;9.75;;
44764;SDS011;30484;52.382;5.260;2023-05-07T13:08:50;10.30;;;7.78;;
44764;SDS011;30484;52.382;5.260;2023-05-07T13:11:21;10.05;;;8.18;;
44764;SDS011;30484;52.382;5.260;2023-05-07T13:13:54;12.63;;;7.13;;
44764;SDS011;30484;52.382;5.260;2023-05-07T13:16:26;10.13;;;6.57;;
44764;SDS011;30484;52.382;5.260;2023-05-07T13:18:56;10.95;;;6.15;;
44764;SDS011;30484;52.382;5.260;2023-05-07T13:21:24;10.98;;;6.50;;
44764;SDS011;30484;52.382;5.260;2023-05-07T13:24:01;11.50;;;6.40;;
44764;SDS011;30484;52.382;5.260;2023-05-07T13:26:31;9.68;;;5.90;;
44764;SDS011;30484;52.382;5.260;2023-05-07T13:29:01;10.20;;;5.45;;
44764;SDS011;30484;52.382;5.260;2023-05-07T13:31:30;7.95;;;5.30;;
44764;SDS011;30484;52.382;5.260;2023-05-07T13:34:02;9.60;;;5.18;;
44764;SDS011;30484;52.382;5.260;2023-05-07T13:36:32;11.25;;;6.28;;
44764;SDS011;30484;52.382;5.260;2023-05-07T13:39:09;7.82;;;4.35;;
44764;SDS011;30484;52.382;5.260;2023-05-07T13:41:41;8.63;;;3.88;;
44764;SDS011;30484;52.382;5.260;2023-05-07T13:44:11;6.63;;;4.03;;
44764;SDS011;30484;52.382;5.260;2023-05-07T13:46:42;7.72;;;4.40;;
44764;SDS011;30484;52.382;5.260;2023-05-07T13:49:11;8.98;;;4.32;;
44764;SDS011;30484;52.382;5.260;2023-05-07T13:51:41;8.73;;;4.72;;
44764;SDS011;30484;52.382;5.260;2023-05-07T13:54:10;8.10;;;3.90;;
44764;SDS011;30484;52.382;5.260;2023-05-07T13:56:39;7.07;;;3.55;;
44764;SDS011;30484;52.382;5.260;2023-05-07T13:59:08;6.22;;;3.53;;
44764;SDS011;30484;52.382;5.260;2023-05-07T14:01:40;7.95;;;3.90;;
44764;SDS011;30484;52.382;5.260;2023-05-07T14:04:10;7.57;;;4.57;;
44764;SDS011;30484;52.382;5.260;2023-05-07T14:06:39;8.82;;;4.47;;
44764;SDS011;30484;52.382;5.260;2023-05-07T14:09:09;8.55;;;4.90;;
44764;SDS011;30484;52.382;5.260;2023-05-07T14:11:43;9.02;;;5.25;;
44764;SDS011;30484;52.382;5.260;2023-05-07T14:14:17;7.88;;;4.30;;
44764;SDS011;30484;52.382;5.260;2023-05-07T14:16:48;9.30;;;5.00;;
44764;SDS011;30484;52.382;5.260;2023-05-07T14:19:19;6.95;;;4.38;;
44764;SDS011;30484;52.382;5.260;2023-05-07T14:21:50;10.27;;;3.90;;
44764;SDS011;30484;52.382;5.260;2023-05-07T14:24:24;12.50;;;4.68;;
44764;SDS011;30484;52.382;5.260;2023-05-07T14:27:04;9.13;;;4.78;;
44764;SDS011;30484;52.382;5.260;2023-05-07T14:29:36;9.70;;;4.80;;
44764;SDS011;30484;52.382;5.260;2023-05-07T14:32:05;10.13;;;5.18;;
44764;SDS011;30484;52.382;5.260;2023-05-07T14:34:36;11.23;;;6.40;;
44764;SDS011;30484;52.382;5.260;2023-05-07T14:37:05;11.27;;;6.80;;
44764;SDS011;30484;52.382;5.260;2023-05-07T14:39:38;11.20;;;7.32;;
44764;SDS011;30484;52.382;5.260;2023-05-07T14:42:18;9.52;;;6.88;;
44764;SDS011;30484;52.382;5.260;2023-05-07T14:44:47;14.95;;;8.38;;
44764;SDS011;30484;52.382;5.260;2023-05-07T14:47:16;13.23;;;7.82;;
44764;SDS011;30484;52.382;5.260;2023-05-07T14:49:47;11.43;;;7.03;;
44764;SDS011;30484;52.382;5.260;2023-05-07T14:52:17;15.02;;;7.65;;
44764;SDS011;30484;52.382;5.260;2023-05-07T14:54:50;12.63;;;7.57;;
44764;SDS011;30484;52.382;5.260;2023-05-07T14:57:21;14.00;;;8.73;;
44764;SDS011;30484;52.382;5.260;2023-05-07T14:59:52;12.82;;;8.88;;
44764;SDS011;30484;52.382;5.260;2023-05-07T15:02:21;14.10;;;9.43;;
44764;SDS011;30484;52.382;5.260;2023-05-07T15:04:52;16.02;;;9.88;;
44764;SDS011;30484;52.382;5.260;2023-05-07T15:07:21;16.45;;;9.23;;
44764;SDS011;30484;52.382;5.260;2023-05-07T15:09:52;18.48;;;10.25;;
44764;SDS011;30484;52.382;5.260;2023-05-07T15:12:24;15.82;;;9.98;;
44764;SDS011;30484;52.382;5.260;2023-05-07T15:14:54;11.70;;;8.15;;